Time;durP1;ratioP1;P1;durP2;ratioP2;P2;SDS_P1;SDS_P2;PMS_P1;PMS_P2;Temp;Humidity;BMP_temperature;BMP_pressure;BME280_temperature;BME280_humidity;BME280_pressure;Samples;Min_cycle;Max_cycle;Signal;HPM_P1;HPM_P2
2023/11/13 00:01:49;;;;;;;8.23;5.70;;;8.30;99.90;;;;;;5036806;28;20064;-84
2023/11/13 00:04:14;;;;;;;10.32;5.18;;;8.30;99.90;;;;;;5036525;28;20111;-83
2023/11/13 00:06:40;;;;;;;8.38;5.10;;;8.30;99.90;;;;;;5036577;28;20037;-84
2023/11/13 00:09:06;;;;;;;8.95;5.07;;;8.40;99.90;;;;;;5036799;28;20024;-84
2023/11/13 00:11:32;;;;;;;8.45;5.03;;;8.40;99.90;;;;;;5036435;28;20024;-84
2023/11/13 00:13:59;;;;;;;9.35;5.43;;;8.40;99.90;;;;;;5054352;28;20036;-84
2023/11/13 00:16:25;;;;;;;11.43;5.97;;;8.50;99.90;;;;;;5035949;28;20025;-83
2023/11/13 00:18:51;;;;;;;9.65;5.15;;;8.40;99.90;;;;;;5036494;28;20142;-83
2023/11/13 00:21:16;;;;;;;10.45;5.75;;;8.50;99.90;;;;;;5035571;28;20116;-83
2023/11/13 00:23:45;;;;;;;14.70;6.35;;;8.40;99.90;;;;;;5036577;28;20035;-83
2023/11/13 00:26:12;;;;;;;10.40;5.57;;;8.50;99.90;;;;;;5036516;28;20045;-83
2023/11/13 00:28:37;;;;;;;9.60;5.43;;;8.50;99.90;;;;;;5036414;28;20031;-84
2023/11/13 00:31:04;;;;;;;9.48;5.18;;;8.50;99.90;;;;;;5054166;28;20100;-84
2023/11/13 00:33:30;;;;;;;9.65;5.25;;;8.60;99.90;;;;;;5053333;28;20021;-84
2023/11/13 00:35:55;;;;;;;9.43;5.57;;;8.60;99.90;;;;;;5036311;28;20087;-84
2023/11/13 00:38:21;;;;;;;10.55;5.75;;;8.50;99.90;;;;;;5035987;28;20028;-84
2023/11/13 00:40:47;;;;;;;11.13;6.07;;;8.50;99.90;;;;;;5053963;28;20021;-84
2023/11/13 00:43:14;;;;;;;8.50;5.07;;;8.50;99.90;;;;;;5036343;28;20031;-82
2023/11/13 00:45:40;;;;;;;9.25;5.05;;;8.50;99.90;;;;;;5036535;28;20029;-84
2023/11/13 00:48:05;;;;;;;8.40;4.90;;;8.60;99.90;;;;;;5036139;28;20029;-84
2023/11/13 00:50:31;;;;;;;9.95;4.90;;;8.60;99.90;;;;;;5036190;28;20032;-84
2023/11/13 00:53:00;;;;;;;10.63;5.20;;;8.50;99.90;;;;;;5036577;28;20377;-84
2023/11/13 00:55:26;;;;;;;8.93;4.68;;;8.50;99.90;;;;;;5053888;28;20061;-84
2023/11/13 00:57:52;;;;;;;9.50;5.22;;;8.50;99.90;;;;;;5053877;28;20489;-84
2023/11/13 01:00:18;;;;;;;9.82;4.72;;;8.40;99.90;;;;;;5036185;28;20025;-83
2023/11/13 01:02:44;;;;;;;7.97;5.07;;;8.50;99.90;;;;;;5036136;28;20032;-84
2023/11/13 01:05:11;;;;;;;9.40;4.95;;;8.50;99.90;;;;;;5053900;28;20394;-84
2023/11/13 01:07:37;;;;;;;11.20;5.53;;;8.50;99.90;;;;;;5053055;28;20021;-84
2023/11/13 01:10:03;;;;;;;8.88;4.97;;;8.50;99.90;;;;;;5036105;28;20481;-84
2023/11/13 01:12:28;;;;;;;7.88;4.57;;;8.50;99.90;;;;;;5035404;28;20036;-84
2023/11/13 01:14:54;;;;;;;8.10;5.10;;;8.50;99.90;;;;;;5056621;28;20032;-84
2023/11/13 01:17:20;;;;;;;6.57;4.18;;;8.60;99.90;;;;;;5039408;28;20082;-83
2023/11/13 01:19:45;;;;;;;7.75;4.63;;;8.50;99.90;;;;;;5039731;28;20092;-84
2023/11/13 01:22:11;;;;;;;6.82;4.03;;;8.50;99.90;;;;;;5039833;28;20436;-84
2023/11/13 01:24:37;;;;;;;7.93;4.43;;;8.60;99.90;;;;;;5039235;28;20029;-83
2023/11/13 01:27:03;;;;;;;7.82;4.05;;;8.60;99.90;;;;;;5039362;28;20037;-83
2023/11/13 01:29:28;;;;;;;8.65;4.20;;;8.60;99.90;;;;;;5038675;28;20067;-83
2023/11/13 01:31:54;;;;;;;6.32;3.85;;;8.60;99.90;;;;;;5039430;28;20029;-83
2023/11/13 01:34:20;;;;;;;7.05;4.10;;;8.60;99.90;;;;;;5056716;28;20025;-83
2023/11/13 01:36:46;;;;;;;5.68;3.33;;;8.60;99.90;;;;;;5039265;28;20066;-83
2023/11/13 01:39:12;;;;;;;7.18;4.30;;;8.60;99.90;;;;;;5039186;28;20040;-84
2023/11/13 01:41:38;;;;;;;6.10;3.85;;;8.60;99.90;;;;;;5038759;28;20382;-83
2023/11/13 01:44:05;;;;;;;6.30;3.58;;;8.70;99.90;;;;;;5057005;28;20489;-84
2023/11/13 01:46:31;;;;;;;5.45;3.03;;;8.70;99.90;;;;;;5038862;28;20033;-83
2023/11/13 01:48:59;;;;;;;5.20;3.25;;;8.70;99.90;;;;;;5056779;28;20477;-84
2023/11/13 01:51:26;;;;;;;6.47;3.45;;;8.70;99.90;;;;;;5038858;28;20048;-84
2023/11/13 01:53:53;;;;;;;6.00;3.00;;;8.70;99.90;;;;;;5039143;28;20056;-83
2023/11/13 01:56:22;;;;;;;9.85;4.40;;;8.70;99.90;;;;;;5038182;28;20049;-83
2023/11/13 01:58:48;;;;;;;5.00;3.03;;;8.70;99.90;;;;;;5056495;28;20029;-83
2023/11/13 02:01:14;;;;;;;6.15;2.90;;;8.80;99.90;;;;;;5038680;28;20027;-84
2023/11/13 02:03:40;;;;;;;4.15;2.70;;;8.70;99.90;;;;;;5056138;28;20025;-84
2023/11/13 02:06:06;;;;;;;3.28;2.22;;;8.70;99.90;;;;;;5038871;28;20038;-83
2023/11/13 02:08:33;;;;;;;4.82;2.65;;;8.80;99.90;;;;;;5038191;28;20036;-84
2023/11/13 02:11:06;;;;;;;4.32;2.55;;;8.80;99.90;;;;;;5056062;28;20029;-84
2023/11/13 02:13:32;;;;;;;4.32;2.60;;;8.70;99.90;;;;;;5038315;28;20025;-84
2023/11/13 02:15:59;;;;;;;4.38;2.72;;;8.70;99.90;;;;;;5038642;28;20029;-84
2023/11/13 02:18:25;;;;;;;3.85;2.40;;;8.60;99.90;;;;;;5055760;28;20056;-84
2023/11/13 02:20:51;;;;;;;5.63;2.90;;;8.60;99.90;;;;;;5038849;28;20079;-84
2023/11/13 02:23:17;;;;;;;4.90;2.85;;;8.70;99.90;;;;;;5038251;28;20029;-84
2023/11/13 02:25:50;;;;;;;5.38;2.65;;;8.70;99.90;;;;;;5054382;28;20064;-84
2023/11/13 02:28:16;;;;;;;4.45;2.78;;;8.70;99.90;;;;;;5056251;28;20035;-84
2023/11/13 02:30:42;;;;;;;4.50;2.55;;;8.70;99.90;;;;;;5038012;28;20119;-84
2023/11/13 02:33:08;;;;;;;3.83;2.20;;;8.80;99.90;;;;;;5038559;28;20025;-84
2023/11/13 02:35:33;;;;;;;3.28;2.30;;;8.70;99.90;;;;;;5038098;28;20538;-84
2023/11/13 02:38:00;;;;;;;3.38;2.20;;;8.80;99.90;;;;;;5056183;28;20029;-84
2023/11/13 02:40:25;;;;;;;4.28;2.22;;;8.80;99.90;;;;;;5037366;28;20055;-84
2023/11/13 02:42:51;;;;;;;3.78;2.22;;;8.80;99.90;;;;;;5038210;28;20029;-84
2023/11/13 02:45:17;;;;;;;3.28;2.10;;;8.80;99.90;;;;;;5037909;28;20533;-84
2023/11/13 02:47:43;;;;;;;4.63;2.72;;;8.80;99.90;;;;;;5055077;28;20024;-84
2023/11/13 02:50:12;;;;;;;3.33;2.45;;;8.80;99.90;;;;;;5037665;28;20402;-85
2023/11/13 02:52:39;;;;;;;4.47;2.58;;;8.80;99.90;;;;;;5037685;28;20482;-84
2023/11/13 02:55:05;;;;;;;3.83;2.60;;;8.80;99.90;;;;;;5055120;28;20111;-84
2023/11/13 02:57:32;;;;;;;3.90;2.33;;;8.90;99.90;;;;;;5037110;28;20450;-84
2023/11/13 02:59:57;;;;;;;3.75;2.40;;;8.90;99.90;;;;;;5037576;28;20116;-84
2023/11/13 03:02:23;;;;;;;6.60;2.22;;;8.90;99.90;;;;;;5036944;28;20064;-83
2023/11/13 03:04:49;;;;;;;4.78;2.80;;;9.00;99.90;;;;;;5037516;28;20021;-84
2023/11/13 03:07:14;;;;;;;4.53;2.20;;;8.90;99.90;;;;;;5037647;28;20509;-84
2023/11/13 03:09:40;;;;;;;3.65;2.20;;;8.90;99.90;;;;;;5054465;28;20021;-83
2023/11/13 03:12:06;;;;;;;5.05;3.10;;;8.90;99.90;;;;;;5055047;28;20390;-84
2023/11/13 03:14:32;;;;;;;5.13;2.55;;;9.00;99.90;;;;;;5037328;28;20462;-84
2023/11/13 03:16:58;;;;;;;3.70;2.50;;;9.10;99.90;;;;;;5054711;28;20036;-84
2023/11/13 03:19:23;;;;;;;4.40;2.47;;;9.10;99.90;;;;;;5036975;28;20035;-83
2023/11/13 03:21:49;;;;;;;5.05;2.75;;;9.20;99.90;;;;;;5037200;28;20021;-83
2023/11/13 03:24:14;;;;;;;4.68;2.53;;;9.30;99.90;;;;;;5055005;28;20033;-83
2023/11/13 03:26:40;;;;;;;4.20;2.08;;;9.30;99.90;;;;;;5036334;28;20060;-83
2023/11/13 03:29:06;;;;;;;4.43;2.33;;;9.40;99.90;;;;;;5037034;28;20037;-83
2023/11/13 03:31:31;;;;;;;2.88;1.33;;;9.50;99.90;;;;;;5054250;28;20027;-84
2023/11/13 03:33:57;;;;;;;2.50;1.20;;;9.70;99.90;;;;;;5037321;28;20067;-84
2023/11/13 03:36:23;;;;;;;1.90;1.10;;;9.90;99.90;;;;;;5036456;28;20028;-84
2023/11/13 03:38:49;;;;;;;4.80;0.85;;;10.10;99.90;;;;;;5036791;28;20179;-83
2023/11/13 03:41:14;;;;;;;1.73;0.75;;;10.20;99.90;;;;;;5036922;28;20481;-84
2023/11/13 03:43:41;;;;;;;3.38;0.70;;;10.40;99.90;;;;;;5036527;28;20032;-83
2023/11/13 03:46:06;;;;;;;2.10;0.65;;;10.50;99.90;;;;;;5037002;28;20462;-83
2023/11/13 03:48:32;;;;;;;2.03;1.27;;;10.60;99.90;;;;;;5036634;28;20029;-84
2023/11/13 03:50:57;;;;;;;4.43;0.95;;;10.70;99.90;;;;;;5036746;28;20500;-83
2023/11/13 03:53:23;;;;;;;2.83;0.93;;;10.80;99.90;;;;;;5036800;28;20163;-83
2023/11/13 03:55:49;;;;;;;1.65;0.63;;;10.80;99.90;;;;;;5053468;28;20060;-83
2023/11/13 03:58:14;;;;;;;3.90;0.55;;;10.90;99.90;;;;;;5036711;28;20033;-83
2023/11/13 04:00:40;;;;;;;2.70;0.60;;;11.00;99.90;;;;;;5035958;28;20119;-84
2023/11/13 04:03:06;;;;;;;4.22;0.60;;;11.00;99.90;;;;;;5036726;28;20024;-84
2023/11/13 04:05:32;;;;;;;3.95;1.10;;;11.00;99.90;;;;;;5053647;28;20067;-84
2023/11/13 04:07:58;;;;;;;3.97;0.60;;;11.10;99.90;;;;;;5036842;28;20035;-83
2023/11/13 04:10:25;;;;;;;2.25;0.55;;;11.10;99.90;;;;;;5036418;28;20436;-83
2023/11/13 04:12:50;;;;;;;5.00;0.90;;;11.10;99.90;;;;;;5036017;28;20074;-83
2023/11/13 04:15:16;;;;;;;7.43;0.88;;;11.20;99.90;;;;;;5054015;28;20024;-83
2023/11/13 04:17:42;;;;;;;8.32;1.08;;;11.30;99.90;;;;;;5035906;28;20523;-83
2023/11/13 04:20:12;;;;;;;10.48;1.50;;;11.30;99.90;;;;;;5036809;28;20021;-83
2023/11/13 04:22:38;;;;;;;8.38;1.08;;;11.30;99.90;;;;;;5036027;28;20071;-83
2023/11/13 04:25:04;;;;;;;6.15;0.88;;;11.40;99.90;;;;;;5036340;28;20025;-83
2023/11/13 04:27:31;;;;;;;4.03;0.75;;;11.40;99.90;;;;;;5053448;28;20044;-83
2023/11/13 04:29:56;;;;;;;4.47;0.80;;;11.40;99.90;;;;;;5054191;28;20108;-84
2023/11/13 04:32:24;;;;;;;5.93;0.85;;;11.50;99.90;;;;;;5036746;28;20060;-83
2023/11/13 04:34:50;;;;;;;4.55;0.93;;;11.50;99.90;;;;;;5035613;28;20439;-83
2023/11/13 04:37:16;;;;;;;7.10;1.20;;;11.50;99.90;;;;;;5054002;28;20068;-83
2023/11/13 04:39:41;;;;;;;8.10;1.30;;;11.60;99.90;;;;;;5035933;28;20025;-83
2023/11/13 04:42:07;;;;;;;4.22;0.93;;;11.60;99.90;;;;;;5036022;28;20028;-82
2023/11/13 04:44:32;;;;;;;8.88;0.95;;;11.60;99.90;;;;;;5053114;28;20040;-83
2023/11/13 04:46:58;;;;;;;7.03;1.10;;;11.60;99.90;;;;;;5036161;28;20473;-84
2023/11/13 04:49:24;;;;;;;3.63;0.93;;;11.60;99.90;;;;;;5056325;28;20052;-84
2023/11/13 04:51:50;;;;;;;12.30;1.55;;;11.60;99.90;;;;;;5039501;28;20072;-84
2023/11/13 04:54:16;;;;;;;8.00;1.50;;;11.70;99.90;;;;;;5039900;28;20036;-82
2023/11/13 04:56:42;;;;;;;1.98;0.88;;;11.60;99.90;;;;;;5039759;28;20036;-84
2023/11/13 04:59:09;;;;;;;5.53;1.10;;;11.70;99.90;;;;;;5057225;28;20029;-84
2023/11/13 05:01:36;;;;;;;6.88;1.10;;;11.70;99.90;;;;;;5039616;28;20025;-83
2023/11/13 05:04:05;;;;;;;8.13;1.00;;;11.70;99.90;;;;;;5057698;28;20133;-84
2023/11/13 05:06:30;;;;;;;4.93;1.00;;;11.70;99.90;;;;;;5039427;28;20535;-84
2023/11/13 05:08:56;;;;;;;5.40;1.00;;;11.70;99.90;;;;;;5039700;28;20033;-84
2023/11/13 05:11:26;;;;;;;10.52;1.25;;;11.60;99.90;;;;;;5039825;28;20370;-84
2023/11/13 05:13:52;;;;;;;8.57;1.27;;;11.70;99.90;;;;;;5057022;28;20075;-84
2023/11/13 05:16:25;;;;;;;9.57;1.33;;;11.70;99.90;;;;;;5039623;28;20029;-84
2023/11/13 05:18:51;;;;;;;9.93;1.65;;;11.70;99.90;;;;;;5039497;28;20108;-84
2023/11/13 05:21:18;;;;;;;8.63;1.30;;;11.80;99.90;;;;;;5039768;28;20116;-84
2023/11/13 05:23:46;;;;;;;11.05;1.80;;;11.80;99.90;;;;;;5039198;28;20021;-84
2023/11/13 05:26:11;;;;;;;6.45;1.30;;;11.80;99.90;;;;;;5057037;28;20060;-84
2023/11/13 05:28:37;;;;;;;7.07;1.02;;;11.80;99.90;;;;;;5056587;28;20040;-84
2023/11/13 05:31:03;;;;;;;10.77;1.48;;;11.80;99.90;;;;;;5039601;28;20032;-85
2023/11/13 05:33:29;;;;;;;8.70;1.20;;;11.80;99.90;;;;;;5056957;28;20036;-85
2023/11/13 05:35:55;;;;;;;8.10;1.50;;;11.80;99.90;;;;;;5057204;28;20504;-85
2023/11/13 05:38:21;;;;;;;7.45;1.80;;;11.80;99.90;;;;;;5057365;28;20021;-85
2023/11/13 05:40:46;;;;;;;12.82;1.77;;;11.80;99.90;;;;;;5038778;28;20028;-85
2023/11/13 05:43:12;;;;;;;8.13;2.10;;;11.80;99.90;;;;;;5039276;28;20052;-85
2023/11/13 05:45:38;;;;;;;14.13;1.73;;;11.80;99.90;;;;;;5056345;28;20036;-85
2023/11/13 05:48:05;;;;;;;11.75;1.67;;;11.80;99.90;;;;;;5038976;28;20029;-85
2023/11/13 05:50:31;;;;;;;11.98;2.08;;;11.80;99.90;;;;;;5038062;28;20078;-84
2023/11/13 05:52:57;;;;;;;10.38;1.73;;;11.90;99.90;;;;;;5039286;28;20090;-84
2023/11/13 05:55:23;;;;;;;16.25;2.10;;;11.90;99.90;;;;;;5038451;28;20486;-84
2023/11/13 05:57:52;;;;;;;14.65;2.05;;;11.90;99.90;;;;;;5038867;28;20470;-85
2023/11/13 06:00:20;;;;;;;18.83;2.33;;;11.90;99.90;;;;;;5038811;28;20092;-84
2023/11/13 06:02:46;;;;;;;12.13;2.80;;;11.90;99.90;;;;;;5038648;28;20029;-84
2023/11/13 06:05:12;;;;;;;11.13;2.05;;;11.90;99.90;;;;;;5039029;28;20029;-82
2023/11/13 06:07:38;;;;;;;9.75;1.50;;;11.90;99.90;;;;;;5038222;28;20041;-84
2023/11/13 06:10:08;;;;;;;10.60;2.05;;;11.80;99.90;;;;;;5056103;28;20025;-84
2023/11/13 06:12:40;;;;;;;12.23;1.70;;;11.90;99.90;;;;;;5038229;28;20075;-83
2023/11/13 06:15:12;;;;;;;11.07;1.98;;;11.90;99.90;;;;;;5056283;28;20083;-84
2023/11/13 06:17:39;;;;;;;13.95;2.05;;;11.80;99.90;;;;;;5038134;28;20425;-83
2023/11/13 06:20:05;;;;;;;9.98;1.65;;;11.80;99.90;;;;;;5055940;28;20029;-84
2023/11/13 06:22:31;;;;;;;17.77;3.17;;;11.80;99.90;;;;;;5056500;28;20450;-82
2023/11/13 06:24:56;;;;;;;5.95;1.83;;;11.80;99.90;;;;;;5038220;28;20032;-84
2023/11/13 06:27:22;;;;;;;11.88;2.40;;;11.80;99.90;;;;;;5039188;28;20458;-85
2023/11/13 06:29:48;;;;;;;11.75;1.80;;;11.80;99.90;;;;;;5038217;28;20119;-84
2023/11/13 06:32:14;;;;;;;12.73;2.08;;;11.80;99.90;;;;;;5038438;28;20043;-84
2023/11/13 06:34:39;;;;;;;11.27;2.05;;;11.80;99.90;;;;;;5055329;28;20021;-84
2023/11/13 06:37:05;;;;;;;12.27;1.95;;;11.80;99.90;;;;;;5038199;28;20033;-84
2023/11/13 06:39:31;;;;;;;11.60;2.00;;;11.80;99.90;;;;;;5055957;28;20367;-85
2023/11/13 06:41:57;;;;;;;8.73;1.95;;;11.80;99.90;;;;;;5037603;28;20028;-84
2023/11/13 06:44:23;;;;;;;8.80;1.90;;;11.80;99.90;;;;;;5038000;28;20021;-85
2023/11/13 06:46:49;;;;;;;15.93;2.13;;;11.80;99.90;;;;;;5037719;28;20461;-84
2023/11/13 06:49:14;;;;;;;12.20;1.90;;;11.80;99.90;;;;;;5037819;28;20059;-84
2023/11/13 06:51:40;;;;;;;8.38;2.20;;;11.80;99.90;;;;;;5037392;28;20075;-84
2023/11/13 06:54:07;;;;;;;8.48;1.90;;;11.80;99.90;;;;;;5037733;28;20033;-84
2023/11/13 06:56:34;;;;;;;13.57;2.30;;;11.70;99.90;;;;;;5036810;28;20059;-84
2023/11/13 06:59:00;;;;;;;11.90;1.95;;;11.80;99.90;;;;;;5036289;28;20097;-84
2023/11/13 07:01:25;;;;;;;16.23;2.58;;;11.80;99.90;;;;;;5036689;28;20076;-84
2023/11/13 07:03:51;;;;;;;16.13;2.75;;;11.80;99.90;;;;;;5036234;28;20462;-85
2023/11/13 07:06:17;;;;;;;11.15;1.90;;;11.80;99.90;;;;;;5036948;28;20029;-83
2023/11/13 07:08:43;;;;;;;11.52;2.00;;;11.70;99.90;;;;;;5036364;28;20025;-83
2023/11/13 07:11:10;;;;;;;13.60;2.22;;;11.80;99.90;;;;;;5053584;28;20096;-84
2023/11/13 07:13:40;;;;;;;11.43;2.70;;;11.80;99.90;;;;;;5036181;28;20032;-82
2023/11/13 07:16:07;;;;;;;11.20;2.10;;;11.80;99.90;;;;;;5054370;28;20037;-84
2023/11/13 07:18:33;;;;;;;13.73;2.03;;;11.80;99.90;;;;;;5053768;28;20021;-85
2023/11/13 07:21:01;;;;;;;9.77;1.55;;;11.80;99.90;;;;;;5028515;28;20032;-84
2023/11/13 07:23:28;;;;;;;13.23;2.38;;;11.80;99.90;;;;;;5016615;28;20045;-84
2023/11/13 07:25:54;;;;;;;16.38;2.13;;;11.80;99.90;;;;;;5016010;28;20033;-84
2023/11/13 07:28:20;;;;;;;14.93;2.47;;;11.80;99.90;;;;;;5033863;28;20033;-84
2023/11/13 07:30:46;;;;;;;12.20;2.40;;;11.70;99.90;;;;;;5016097;28;20036;-84
2023/11/13 07:33:12;;;;;;;11.75;2.28;;;11.70;99.90;;;;;;5016347;28;20025;-84
2023/11/13 07:35:40;;;;;;;12.43;2.58;;;11.70;99.90;;;;;;5016262;28;20075;-83
2023/11/13 07:38:07;;;;;;;12.38;2.10;;;11.70;99.90;;;;;;5016341;28;20053;-85
2023/11/13 07:40:34;;;;;;;5.90;1.45;;;11.70;99.90;;;;;;5033974;28;20108;-85
2023/11/13 07:42:59;;;;;;;12.95;2.15;;;11.70;99.90;;;;;;5015991;28;20475;-85
2023/11/13 07:45:25;;;;;;;11.18;1.90;;;11.70;99.90;;;;;;5016452;28;20030;-84
2023/11/13 07:47:51;;;;;;;13.13;2.47;;;11.70;99.90;;;;;;5015967;28;20060;-84
2023/11/13 07:50:17;;;;;;;6.90;1.63;;;11.70;99.90;;;;;;5016837;28;20033;-84
2023/11/13 07:52:44;;;;;;;9.40;1.60;;;11.70;99.90;;;;;;5016070;28;20029;-84
2023/11/13 07:55:11;;;;;;;7.00;1.75;;;11.60;99.90;;;;;;4979387;28;1070504;-85
2023/11/13 07:57:38;;;;;;;9.23;1.70;;;11.70;99.90;;;;;;5017474;28;20090;-85
2023/11/13 08:00:05;;;;;;;8.98;1.88;;;11.60;99.90;;;;;;5016979;28;20025;-85
2023/11/13 08:02:30;;;;;;;8.23;1.55;;;11.60;99.90;;;;;;5016900;28;20159;-85
2023/11/13 08:04:57;;;;;;;7.18;1.45;;;11.60;99.90;;;;;;5016540;28;20055;-85
2023/11/13 08:07:22;;;;;;;6.18;1.17;;;11.60;99.90;;;;;;5017076;28;20029;-85
2023/11/13 08:09:48;;;;;;;5.03;1.42;;;11.60;99.90;;;;;;5016034;28;20438;-84
2023/11/13 08:12:13;;;;;;;5.88;1.70;;;11.50;99.90;;;;;;5034045;28;20037;-86
2023/11/13 08:14:40;;;;;;;8.98;1.52;;;11.50;99.90;;;;;;5016452;28;20032;-85
2023/11/13 08:17:05;;;;;;;10.18;1.38;;;11.50;99.90;;;;;;5034226;28;20108;-84
2023/11/13 08:19:31;;;;;;;6.03;1.60;;;11.50;99.90;;;;;;5015895;28;20057;-84
2023/11/13 08:21:56;;;;;;;10.60;1.60;;;11.40;99.90;;;;;;5016047;28;20029;-85
2023/11/13 08:24:22;;;;;;;7.18;1.70;;;11.50;99.90;;;;;;5015470;28;20067;-85
2023/11/13 08:26:48;;;;;;;10.13;1.85;;;11.50;99.90;;;;;;5033710;28;20120;-85
2023/11/13 08:29:17;;;;;;;9.63;1.55;;;11.50;99.90;;;;;;5017244;28;20079;-93
2023/11/13 08:31:43;;;;;;;9.32;2.03;;;11.40;99.90;;;;;;5023227;28;20083;-84
2023/11/13 08:34:08;;;;;;;8.93;1.85;;;11.50;99.90;;;;;;5034028;28;20051;-92
2023/11/13 08:36:34;;;;;;;11.50;1.98;;;11.50;99.90;;;;;;5029613;28;20028;-95
2023/11/13 08:39:00;;;;;;;6.75;1.55;;;11.50;99.90;;;;;;5090821;23;20053;-94
2023/11/13 08:41:28;;;;;;;8.82;1.50;;;11.50;99.90;;;;;;5024130;28;20080;-89
2023/11/13 08:43:54;;;;;;;4.78;1.30;;;11.50;99.90;;;;;;5049838;28;20036;-88
2023/11/13 08:48:56;;;;;;;4.78;1.55;;;11.50;99.90;;;;;;5031954;28;20462;-96
2023/11/13 08:51:28;;;;;;;4.07;1.45;;;11.60;99.90;;;;;;5009572;28;20044;-90
2023/11/13 08:53:54;;;;;;;5.22;1.50;;;11.50;99.90;;;;;;5017182;28;20052;-90
2023/11/13 08:56:21;;;;;;;11.82;1.50;;;11.50;99.90;;;;;;5012828;28;20030;-89
2023/11/13 08:58:47;;;;;;;6.10;1.33;;;11.50;99.90;;;;;;5022197;28;20021;-96
2023/11/13 09:01:15;;;;;;;8.50;1.40;;;11.50;99.90;;;;;;5023151;28;20025;-96
2023/11/13 09:03:42;;;;;;;5.63;1.42;;;11.60;99.90;;;;;;5007294;28;20089;-95
2023/11/13 09:06:08;;;;;;;4.03;1.27;;;11.60;99.90;;;;;;5003259;28;20041;-89
2023/11/13 09:08:35;;;;;;;7.85;1.40;;;11.60;99.90;;;;;;5010578;28;20056;-92
2023/11/13 09:11:04;;;;;;;4.40;1.10;;;11.60;99.90;;;;;;5013247;28;20512;-89
2023/11/13 09:13:29;;;;;;;3.60;1.20;;;11.60;99.90;;;;;;4996260;28;20062;-92
2023/11/13 09:15:55;;;;;;;4.97;1.25;;;11.70;99.90;;;;;;5030117;28;20061;-90
2023/11/13 09:18:26;;;;;;;5.70;1.20;;;11.70;99.90;;;;;;5014157;28;20117;-92
2023/11/13 09:20:54;;;;;;;3.55;1.10;;;11.80;99.90;;;;;;5002718;28;20049;-84
2023/11/13 09:23:20;;;;;;;4.90;1.17;;;11.80;99.90;;;;;;5004019;28;20033;-88
2023/11/13 09:25:46;;;;;;;6.50;1.10;;;11.80;99.90;;;;;;4999929;28;20030;-89
2023/11/13 09:28:12;;;;;;;4.07;1.08;;;11.90;99.90;;;;;;5025887;28;20038;-92
2023/11/13 09:30:39;;;;;;;7.78;1.42;;;11.90;99.90;;;;;;5012619;28;20520;-90
2023/11/13 09:33:08;;;;;;;2.97;0.95;;;12.00;99.90;;;;;;5005549;28;20026;-90
2023/11/13 09:35:36;;;;;;;1.42;0.70;;;12.00;99.90;;;;;;5029559;28;20477;-84
2023/11/13 09:38:03;;;;;;;5.25;1.02;;;12.10;99.90;;;;;;5020544;28;20228;-88
2023/11/13 09:40:34;;;;;;;3.35;0.75;;;12.10;99.90;;;;;;5032301;28;20026;-82
2023/11/13 09:43:29;;;;;;;2.42;0.70;;;12.20;99.90;;;;;;5007535;28;20501;-84
2023/11/13 09:45:56;;;;;;;2.90;0.70;;;12.20;99.90;;;;;;5002176;28;20065;-84
2023/11/13 09:48:31;;;;;;;4.00;1.08;;;12.30;99.90;;;;;;4999447;28;20100;-87
2023/11/13 09:50:57;;;;;;;5.10;0.80;;;12.40;99.90;;;;;;5007109;28;20092;-81
2023/11/13 09:53:25;;;;;;;3.38;0.70;;;12.50;99.90;;;;;;5007831;28;20120;-83
2023/11/13 09:55:52;;;;;;;3.65;0.70;;;12.50;99.90;;;;;;5000915;28;20027;-84
2023/11/13 09:58:18;;;;;;;4.65;0.90;;;12.60;99.90;;;;;;4995809;28;20054;-84
2023/11/13 10:00:45;;;;;;;3.90;0.80;;;12.70;99.90;;;;;;5012765;28;20109;-82
2023/11/13 10:03:14;;;;;;;6.13;1.50;;;12.70;99.90;;;;;;5004994;28;20023;-85
2023/11/13 10:05:41;;;;;;;3.13;1.17;;;12.80;99.90;;;;;;5009999;28;20470;-83
2023/11/13 10:08:06;;;;;;;3.78;1.00;;;12.80;99.90;;;;;;5029417;28;20132;-85
2023/11/13 10:10:33;;;;;;;5.32;0.80;;;12.90;99.90;;;;;;5028770;28;20050;-85
2023/11/13 10:13:01;;;;;;;2.35;0.80;;;12.90;99.90;;;;;;5003704;28;20076;-86
2023/11/13 10:15:27;;;;;;;3.55;0.95;;;13.00;99.90;;;;;;5016051;28;20073;-83
2023/11/13 10:17:56;;;;;;;5.25;0.85;;;13.00;99.90;;;;;;4999627;28;20454;-83
2023/11/13 10:20:22;;;;;;;4.15;0.82;;;13.10;99.90;;;;;;4995177;28;20030;-83
2023/11/13 10:23:03;;;;;;;4.45;1.40;;;13.10;99.90;;;;;;4995155;28;20026;-84
2023/11/13 10:25:50;;;;;;;5.65;0.80;;;13.10;99.90;;;;;;4999150;28;20034;-83
2023/11/13 10:28:17;;;;;;;3.92;1.30;;;13.20;99.90;;;;;;4997792;28;20041;-86
2023/11/13 10:30:55;;;;;;;7.47;1.20;;;13.20;99.90;;;;;;5014598;28;20022;-86
2023/11/13 10:33:21;;;;;;;7.63;1.00;;;13.20;99.90;;;;;;5003181;28;20121;-89
2023/11/13 10:35:49;;;;;;;6.35;1.05;;;13.30;99.90;;;;;;5009842;28;20399;-87
2023/11/13 10:38:15;;;;;;;5.25;1.08;;;13.30;99.90;;;;;;5030463;28;20075;-84
2023/11/13 10:40:46;;;;;;;3.30;1.10;;;13.30;99.90;;;;;;5009680;28;20021;-87
2023/11/13 10:43:27;;;;;;;2.80;0.70;;;13.30;99.90;;;;;;5005963;28;20029;-83
2023/11/13 10:45:53;;;;;;;5.35;1.13;;;13.30;99.90;;;;;;4997154;28;20097;-84
2023/11/13 10:48:29;;;;;;;3.55;0.93;;;13.30;99.90;;;;;;5010824;28;20049;-84
2023/11/13 10:50:58;;;;;;;6.40;0.90;;;13.40;99.90;;;;;;5018908;28;20029;-83
2023/11/13 10:53:25;;;;;;;3.13;1.02;;;13.40;99.90;;;;;;5003351;28;20105;-84
2023/11/13 10:55:51;;;;;;;5.55;1.15;;;13.40;99.90;;;;;;5011137;28;20030;-84
2023/11/13 10:58:16;;;;;;;6.97;1.08;;;13.40;99.90;;;;;;4998167;28;20387;-83
2023/11/13 11:00:42;;;;;;;5.13;1.30;;;13.40;99.90;;;;;;5014129;28;20022;-83
2023/11/13 11:03:10;;;;;;;5.32;1.23;;;13.40;99.90;;;;;;5003629;28;20447;-83
2023/11/13 11:05:39;;;;;;;6.45;1.10;;;13.40;99.90;;;;;;5008326;28;20034;-84
2023/11/13 11:08:05;;;;;;;5.30;1.20;;;13.40;99.90;;;;;;4997349;28;20041;-82
2023/11/13 11:10:32;;;;;;;4.85;1.17;;;13.40;99.90;;;;;;5009456;28;20022;-82
2023/11/13 11:13:08;;;;;;;6.25;1.10;;;13.50;99.90;;;;;;4993723;28;20026;-82
2023/11/13 11:15:49;;;;;;;4.45;1.13;;;13.50;99.90;;;;;;4994470;28;20023;-82
2023/11/13 11:18:32;;;;;;;5.32;1.30;;;13.50;99.90;;;;;;5011824;28;20041;-83
2023/11/13 11:21:13;;;;;;;11.30;1.45;;;13.50;99.90;;;;;;5002681;28;20596;-82
2023/11/13 11:23:57;;;;;;;6.38;1.33;;;13.50;99.90;;;;;;5001571;28;20090;-83
2023/11/13 11:26:22;;;;;;;4.97;1.10;;;13.50;99.90;;;;;;4998126;28;20026;-83
2023/11/13 11:28:48;;;;;;;3.80;1.27;;;13.60;99.90;;;;;;5013201;28;20049;-84
2023/11/13 11:31:38;;;;;;;4.45;1.10;;;13.50;99.90;;;;;;5001623;28;20026;-86
2023/11/13 11:34:07;;;;;;;5.75;1.15;;;13.60;99.90;;;;;;5011249;28;20027;-92
2023/11/13 11:36:44;;;;;;;4.70;1.17;;;13.60;99.90;;;;;;5000849;28;20034;-86
2023/11/13 11:39:18;;;;;;;4.65;1.20;;;13.60;99.90;;;;;;5003143;28;20038;-85
2023/11/13 11:41:51;;;;;;;3.25;1.10;;;13.60;99.90;;;;;;5011933;28;20022;-86
2023/11/13 11:44:21;;;;;;;5.95;0.93;;;13.70;99.90;;;;;;4998727;28;20029;-85
2023/11/13 11:46:51;;;;;;;8.70;1.27;;;13.70;99.90;;;;;;5008071;28;20129;-83
2023/11/13 11:49:28;;;;;;;5.72;1.17;;;13.70;99.90;;;;;;5030458;28;20075;-85
2023/11/13 11:52:05;;;;;;;5.85;1.27;;;13.70;99.90;;;;;;5000707;28;20030;-91
2023/11/13 11:54:33;;;;;;;8.45;1.58;;;13.80;99.90;;;;;;5004339;28;20018;-85
2023/11/13 11:57:07;;;;;;;8.43;1.20;;;13.80;99.90;;;;;;5010849;28;20064;-85
2023/11/13 11:59:33;;;;;;;4.28;1.00;;;13.90;99.90;;;;;;5009802;28;20462;-88
2023/11/13 12:02:02;;;;;;;4.35;1.23;;;13.90;99.90;;;;;;5016778;28;20033;-93
2023/11/13 12:04:33;;;;;;;6.35;1.17;;;13.90;99.90;;;;;;5030977;28;20029;-94
2023/11/13 12:07:09;;;;;;;5.82;1.10;;;14.00;99.90;;;;;;5016698;28;20021;-94
2023/11/13 12:09:44;;;;;;;6.47;1.30;;;13.90;99.90;;;;;;5019100;28;20132;-90
2023/11/13 12:12:11;;;;;;;4.20;1.38;;;13.90;99.90;;;;;;5006292;28;20112;-91
2023/11/13 12:14:37;;;;;;;9.52;1.48;;;14.00;99.90;;;;;;5011801;28;20030;-92
2023/11/13 12:17:07;;;;;;;3.97;1.40;;;14.00;99.90;;;;;;5025224;28;20109;-90
2023/11/13 12:19:32;;;;;;;2.85;0.90;;;14.00;99.90;;;;;;5023885;28;20057;-91
2023/11/13 12:21:58;;;;;;;4.63;1.00;;;14.00;99.90;;;;;;5015860;28;20030;-90
2023/11/13 12:24:25;;;;;;;4.07;1.10;;;14.00;99.90;;;;;;5021742;28;20033;-91
2023/11/13 12:26:56;;;;;;;5.53;1.50;;;14.00;99.90;;;;;;4996710;28;20104;-91
2023/11/13 12:29:22;;;;;;;3.13;0.90;;;14.10;99.90;;;;;;5008111;28;20037;-92
2023/11/13 12:31:53;;;;;;;4.53;1.30;;;14.10;99.90;;;;;;5026359;28;20018;-92
2023/11/13 12:34:19;;;;;;;7.05;1.10;;;14.20;99.90;;;;;;5012776;28;20390;-91
2023/11/13 12:36:48;;;;;;;4.32;1.15;;;14.20;99.90;;;;;;5003250;28;20030;-90
2023/11/13 12:39:17;;;;;;;3.80;1.10;;;14.20;99.90;;;;;;5004762;28;20059;-94
2023/11/13 12:41:43;;;;;;;5.82;1.30;;;14.20;99.90;;;;;;5010821;28;20025;-92
2023/11/13 12:44:12;;;;;;;5.13;1.17;;;14.20;99.90;;;;;;4999026;28;20036;-92
2023/11/13 12:46:37;;;;;;;3.30;1.00;;;14.20;99.90;;;;;;5009747;28;20042;-91
2023/11/13 12:49:03;;;;;;;3.65;0.98;;;14.30;99.90;;;;;;5004740;28;20055;-94
2023/11/13 12:51:34;;;;;;;3.78;1.10;;;14.30;99.90;;;;;;5002742;28;20030;-91